createdAt,value
2023-03-21T00:01:52.960Z,68.55
2023-03-21T00:04:24.638Z,68.81
2023-03-21T00:06:53.188Z,68.55
2023-03-21T00:09:21.465Z,68.25
2023-03-21T00:11:53.066Z,68.58
2023-03-21T00:14:21.265Z,68.63
2023-03-21T00:16:51.049Z,68.87
2023-03-21T00:19:21.073Z,68.47
2023-03-21T00:22:08.838Z,68.55
2023-03-21T00:24:37.558Z,68.61
2023-03-21T00:27:30.324Z,68.81
2023-03-21T00:29:56.795Z,68.51
2023-03-21T00:32:28.279Z,68.53
2023-03-21T00:35:16.531Z,68.73
2023-03-21T00:37:49.014Z,69.01
2023-03-21T00:40:26.750Z,68.63
2023-03-21T00:42:59.192Z,68.47
2023-03-21T00:45:28.172Z,68.66
2023-03-21T00:47:56.593Z,69.18
2023-03-21T00:50:30.162Z,68.90
2023-03-21T00:52:58.653Z,68.62
2023-03-21T00:55:28.535Z,68.70
2023-03-21T00:58:02.064Z,69.02
2023-03-21T01:00:31.204Z,69.21
2023-03-21T01:03:17.539Z,69.07
2023-03-21T01:06:04.546Z,68.82
2023-03-21T01:08:48.609Z,69.22
2023-03-21T01:11:24.435Z,69.62
2023-03-21T01:13:59.601Z,69.83
2023-03-21T01:16:32.844Z,69.30
2023-03-21T01:19:02.106Z,69.74
2023-03-21T01:21:33.250Z,70.23
2023-03-21T01:24:01.918Z,70.28
2023-03-21T01:26:30.639Z,69.83
2023-03-21T01:28:58.728Z,70.10
2023-03-21T01:31:26.882Z,70.77
2023-03-21T01:33:55.113Z,70.74
2023-03-21T01:36:25.580Z,70.31
2023-03-21T01:38:58.504Z,70.56
2023-03-21T01:41:42.011Z,70.78
2023-03-21T01:44:18.811Z,71.01
2023-03-21T01:47:11.412Z,70.94
2023-03-21T01:50:02.640Z,71.09
2023-03-21T01:52:41.905Z,71.21
2023-03-21T01:55:18.687Z,71.02
2023-03-21T01:58:05.999Z,70.67
2023-03-21T02:00:56.858Z,71.00
2023-03-21T02:03:50.440Z,71.34
2023-03-21T02:06:49.162Z,71.13
2023-03-21T02:09:26.200Z,70.94
2023-03-21T02:11:58.220Z,71.00
2023-03-21T02:14:30.974Z,71.24
2023-03-21T02:17:27.925Z,71.37
2023-03-21T02:20:41.067Z,71.15
2023-03-21T02:23:14.730Z,70.96
2023-03-21T02:26:40.897Z,71.46
2023-03-21T02:29:49.415Z,71.56
2023-03-21T02:32:37.538Z,71.58
2023-03-21T02:35:37.115Z,71.19
2023-03-21T02:39:09.581Z,71.27
2023-03-21T02:41:49.194Z,71.64
2023-03-21T02:44:37.702Z,71.88
2023-03-21T02:47:13.584Z,71.55
2023-03-21T02:49:54.550Z,71.41
2023-03-21T02:52:37.733Z,71.79
2023-03-21T02:55:16.372Z,72.02
2023-03-21T02:57:51.002Z,72.12
2023-03-21T03:00:21.707Z,71.83
2023-03-21T03:02:54.563Z,71.77
2023-03-21T03:05:29.361Z,71.92
2023-03-21T03:08:24.000Z,72.09
2023-03-21T03:11:09.589Z,72.07
2023-03-21T03:13:52.782Z,71.86
2023-03-21T03:16:42.446Z,72.17
2023-03-21T03:19:18.321Z,72.47
2023-03-21T03:22:06.514Z,72.24
2023-03-21T03:24:55.350Z,72.23
2023-03-21T03:27:26.220Z,72.83
2023-03-21T03:29:54.573Z,73.22
2023-03-21T03:32:44.958Z,72.98
2023-03-21T03:35:17.656Z,72.97
2023-03-21T03:37:48.176Z,73.30
2023-03-21T03:40:17.474Z,73.51
2023-03-21T03:42:53.440Z,73.29
2023-03-21T03:45:40.036Z,73.22
2023-03-21T03:48:15.841Z,73.66
2023-03-21T03:51:11.006Z,73.85
2023-03-21T03:53:58.916Z,73.60
2023-03-21T03:56:30.000Z,73.49
2023-03-21T03:58:58.376Z,73.75
2023-03-21T04:01:41.549Z,73.95
2023-03-21T04:04:13.177Z,73.86
2023-03-21T04:06:45.622Z,73.41
2023-03-21T04:09:21.923Z,73.51
2023-03-21T04:11:53.338Z,74.02
2023-03-21T04:14:21.702Z,73.88
2023-03-21T04:16:50.584Z,73.69
2023-03-21T04:19:19.012Z,74.01
2023-03-21T04:21:47.683Z,74.35
2023-03-21T04:24:17.322Z,74.15
2023-03-21T04:26:46.138Z,73.59
2023-03-21T04:29:37.177Z,73.64
2023-03-21T04:32:27.651Z,73.81
2023-03-21T04:35:09.799Z,73.58
2023-03-21T04:37:39.320Z,73.46
2023-03-21T04:40:11.218Z,73.75
2023-03-21T04:42:39.485Z,73.93
2023-03-21T04:45:08.374Z,73.28
2023-03-21T04:47:36.900Z,73.04
2023-03-21T04:50:09.430Z,73.38
2023-03-21T04:52:38.491Z,73.05
2023-03-21T04:55:10.180Z,72.74
2023-03-21T04:57:39.851Z,72.83
2023-03-21T05:00:10.028Z,73.06
2023-03-21T05:02:42.440Z,72.78
2023-03-21T05:05:12.083Z,72.54
2023-03-21T05:07:41.819Z,72.64
2023-03-21T05:10:11.894Z,72.87
2023-03-21T05:12:42.690Z,72.40
2023-03-21T05:15:11.207Z,71.95
2023-03-21T05:17:44.394Z,72.13
2023-03-21T05:20:16.149Z,72.21
2023-03-21T05:22:46.291Z,71.80
2023-03-21T05:25:18.220Z,71.58
2023-03-21T05:28:31.484Z,71.69
2023-03-21T05:31:01.120Z,71.51
2023-03-21T05:33:30.038Z,71.27
2023-03-21T05:35:58.574Z,71.20
2023-03-21T05:38:31.541Z,71.43
2023-03-21T05:40:59.880Z,71.23
2023-03-21T05:43:28.225Z,70.86
2023-03-21T05:45:58.294Z,70.66
2023-03-21T05:48:36.893Z,70.78
2023-03-21T05:51:15.932Z,70.79
2023-03-21T05:53:44.027Z,70.30
2023-03-21T05:56:12.319Z,70.15
2023-03-21T05:58:46.788Z,70.25
2023-03-21T06:01:15.909Z,70.04
2023-03-21T06:03:48.364Z,69.56
2023-03-21T06:06:18.538Z,69.47
2023-03-21T06:08:53.379Z,69.18
2023-03-21T06:11:27.483Z,69.24
2023-03-21T06:14:16.340Z,68.82
2023-03-21T06:16:45.451Z,68.45
2023-03-21T06:19:14.804Z,68.40
2023-03-21T06:22:01.369Z,68.20
2023-03-21T06:24:29.631Z,67.95
2023-03-21T06:26:58.605Z,67.30
2023-03-21T06:29:28.523Z,66.99
2023-03-21T06:31:56.653Z,66.88
2023-03-21T06:34:24.568Z,66.80
2023-03-21T06:36:54.684Z,66.48
2023-03-21T06:39:23.285Z,66.14
2023-03-21T06:41:51.758Z,66.03
2023-03-21T06:44:22.127Z,66.04
2023-03-21T06:46:57.478Z,65.98
2023-03-21T06:49:27.040Z,65.52
2023-03-21T06:51:58.492Z,65.19
2023-03-21T06:54:26.879Z,65.17
2023-03-21T06:57:11.533Z,65.31
2023-03-21T06:59:42.012Z,65.34
2023-03-21T07:02:12.634Z,64.77
2023-03-21T07:04:46.108Z,64.47
2023-03-21T07:07:18.464Z,64.51
2023-03-21T07:09:47.696Z,64.37
2023-03-21T07:12:16.526Z,64.23
2023-03-21T07:15:20.043Z,63.13
2023-03-21T07:17:48.336Z,62.15
2023-03-21T07:20:17.073Z,61.34
2023-03-21T07:22:45.075Z,60.83
2023-03-21T07:25:20.585Z,60.25
2023-03-21T07:27:51.226Z,59.73
2023-03-21T07:30:19.376Z,59.19
2023-03-21T07:32:47.743Z,58.71
2023-03-21T07:35:17.365Z,58.22
2023-03-21T07:37:47.158Z,57.06
2023-03-21T07:40:18.010Z,56.59
2023-03-21T07:42:45.979Z,56.48
2023-03-21T07:45:21.983Z,56.12
2023-03-21T07:47:50.384Z,55.61
2023-03-21T07:50:19.456Z,55.08
2023-03-21T07:55:56.895Z,55.31
2023-03-21T07:58:26.802Z,54.20
2023-03-21T08:00:55.265Z,53.98
2023-03-21T08:03:23.522Z,53.76
2023-03-21T08:05:55.125Z,53.41
2023-03-21T08:08:23.938Z,53.05
2023-03-21T08:10:50.500Z,52.93
2023-03-21T08:13:22.385Z,52.03
2023-03-21T08:15:49.263Z,51.84
2023-03-21T08:18:16.317Z,52.17
2023-03-21T08:20:43.074Z,51.96
2023-03-21T08:23:09.731Z,51.71
2023-03-21T08:25:36.922Z,51.35
2023-03-21T08:28:04.681Z,50.65
2023-03-21T08:30:32.574Z,49.98
2023-03-21T08:33:01.182Z,49.97
2023-03-21T08:35:29.623Z,49.95
2023-03-21T08:37:56.992Z,49.43
2023-03-21T08:40:23.612Z,49.28
2023-03-21T08:42:52.280Z,48.68
2023-03-21T08:45:19.102Z,48.70
2023-03-21T08:47:47.653Z,48.66
2023-03-21T08:50:17.422Z,48.40
2023-03-21T08:52:44.221Z,48.16
2023-03-21T08:55:10.984Z,48.04
2023-03-21T08:57:38.097Z,47.95
2023-03-21T09:00:12.480Z,47.55
2023-03-21T09:02:40.972Z,47.23
2023-03-21T09:05:08.197Z,47.02
2023-03-21T09:07:35.852Z,46.74
2023-03-21T09:10:21.778Z,46.91
2023-03-21T09:12:55.203Z,47.13
2023-03-21T09:15:25.050Z,47.39
2023-03-21T09:17:53.482Z,47.42
2023-03-21T09:20:25.477Z,47.38
2023-03-21T09:22:52.676Z,47.44
2023-03-21T09:25:20.557Z,46.82
2023-03-21T09:27:49.322Z,46.23
2023-03-21T09:30:17.841Z,46.47
2023-03-21T09:32:47.836Z,46.41
2023-03-21T09:35:18.486Z,46.31
2023-03-21T09:37:49.193Z,46.07
2023-03-21T09:40:25.493Z,46.04
2023-03-21T09:43:06.920Z,45.79
2023-03-21T09:45:44.301Z,45.81
2023-03-21T09:48:19.254Z,45.57
2023-03-21T09:50:48.766Z,45.12
2023-03-21T09:53:23.961Z,44.86
2023-03-21T09:55:53.454Z,44.88
2023-03-21T09:58:25.759Z,44.38
2023-03-21T10:01:00.685Z,44.74
2023-03-21T10:03:34.460Z,44.23
2023-03-21T10:06:04.739Z,43.24
2023-03-21T10:08:35.860Z,43.21
2023-03-21T10:11:22.588Z,42.97
2023-03-21T10:13:55.790Z,43.20
2023-03-21T10:16:31.333Z,43.12
2023-03-21T10:19:04.775Z,42.40
2023-03-21T10:21:58.578Z,42.10
2023-03-21T10:24:21.906Z,41.71
2023-03-21T10:26:51.028Z,42.59
2023-03-21T10:29:18.009Z,42.59
2023-03-21T10:31:45.046Z,42.00
2023-03-21T10:34:16.200Z,41.00
2023-03-21T10:36:43.978Z,40.23
2023-03-21T10:39:21.173Z,39.90
2023-03-21T10:41:47.759Z,40.27
2023-03-21T10:44:16.731Z,40.67
2023-03-21T10:46:53.457Z,40.93
2023-03-21T10:49:20.988Z,41.28
2023-03-21T10:51:52.140Z,41.92
2023-03-21T10:54:20.860Z,42.03
2023-03-21T10:56:57.560Z,41.97
2023-03-21T10:59:24.747Z,42.46
2023-03-21T11:01:52.284Z,42.51
2023-03-21T11:04:21.865Z,42.59
2023-03-21T11:06:59.365Z,42.32
2023-03-21T11:09:41.932Z,41.97
2023-03-21T11:12:27.313Z,41.70
2023-03-21T11:14:54.634Z,41.29
2023-03-21T11:17:28.474Z,41.10
2023-03-21T11:20:08.464Z,41.25
2023-03-21T11:22:40.333Z,40.46
2023-03-21T11:25:11.467Z,40.12
2023-03-21T11:27:47.373Z,39.90
2023-03-21T11:30:21.051Z,39.89
2023-03-21T11:32:51.590Z,39.80
2023-03-21T11:35:20.746Z,40.01
2023-03-21T11:37:52.685Z,39.32
2023-03-21T11:40:25.630Z,39.57
2023-03-21T11:42:54.461Z,39.30
2023-03-21T11:45:25.219Z,39.89
2023-03-21T11:47:57.101Z,39.95
2023-03-21T11:50:23.780Z,39.83
2023-03-21T11:53:06.799Z,39.29
2023-03-21T11:56:06.396Z,37.61
2023-03-21T11:58:38.990Z,37.62
2023-03-21T12:01:43.173Z,37.40
2023-03-21T12:04:17.833Z,36.62
2023-03-21T12:06:47.221Z,35.83
2023-03-21T12:09:32.808Z,35.97
2023-03-21T12:12:06.944Z,35.83
2023-03-21T12:14:56.194Z,35.89
2023-03-21T12:17:35.454Z,36.05
2023-03-21T12:20:11.485Z,35.57
2023-03-21T12:22:59.089Z,35.84
2023-03-21T12:25:30.816Z,35.99
2023-03-21T12:28:32.008Z,36.61
2023-03-21T12:31:25.001Z,37.23
2023-03-21T12:34:14.226Z,37.45
2023-03-21T12:37:02.919Z,37.54
2023-03-21T12:39:36.802Z,37.69
2023-03-21T12:42:03.525Z,37.73
2023-03-21T12:44:32.222Z,37.89
2023-03-21T12:47:22.632Z,37.88
2023-03-21T12:49:55.190Z,37.33
2023-03-21T12:52:25.380Z,37.12
2023-03-21T12:55:00.046Z,37.14
2023-03-21T12:57:47.703Z,36.96
2023-03-21T13:00:25.147Z,37.02
2023-03-21T13:03:12.312Z,37.51
2023-03-21T13:06:00.469Z,37.83
2023-03-21T13:08:39.021Z,38.36
2023-03-21T13:11:06.195Z,38.58
2023-03-21T13:13:46.761Z,38.85
2023-03-21T13:16:39.021Z,38.92
2023-03-21T13:19:20.330Z,39.26
2023-03-21T13:22:05.893Z,39.35
2023-03-21T13:24:48.326Z,39.53
2023-03-21T13:27:24.100Z,39.55
2023-03-21T13:29:52.480Z,39.50
2023-03-21T13:32:30.162Z,39.45
2023-03-21T13:35:16.340Z,39.38
2023-03-21T13:37:52.663Z,39.38
2023-03-21T13:40:39.501Z,39.50
2023-03-21T13:43:48.748Z,39.33
2023-03-21T13:46:24.780Z,39.18
2023-03-21T13:48:58.504Z,39.08
2023-03-21T13:51:29.139Z,38.81
2023-03-21T13:54:38.215Z,38.74
2023-03-21T13:57:05.546Z,38.43
2023-03-21T13:59:32.157Z,38.34
2023-03-21T14:02:28.381Z,38.25
2023-03-21T14:05:07.225Z,38.03
2023-03-21T14:07:42.423Z,37.89
2023-03-21T14:10:23.736Z,37.61
2023-03-21T14:12:51.410Z,37.85
2023-03-21T14:15:19.584Z,38.03
2023-03-21T14:17:58.202Z,37.98
2023-03-21T14:20:32.272Z,38.58
2023-03-21T14:23:00.252Z,38.82
2023-03-21T14:25:37.131Z,38.87
2023-03-21T14:28:25.273Z,39.41
2023-03-21T14:30:59.881Z,39.91
2023-03-21T14:33:43.257Z,40.39
2023-03-21T14:36:17.065Z,40.88
2023-03-21T14:38:43.752Z,41.34
2023-03-21T14:41:26.667Z,41.54
2023-03-21T14:44:25.188Z,41.69
2023-03-21T14:47:05.564Z,41.65
2023-03-21T14:49:33.654Z,41.81
2023-03-21T14:52:02.065Z,42.17
2023-03-21T14:54:29.409Z,42.46
2023-03-21T14:57:02.863Z,43.04
2023-03-21T14:59:34.124Z,44.29
2023-03-21T15:02:04.456Z,45.11
2023-03-21T15:04:31.302Z,46.52
2023-03-21T15:07:04.343Z,48.70
2023-03-21T15:09:33.939Z,50.51
2023-03-21T15:12:08.483Z,51.70
2023-03-21T15:14:36.140Z,52.55
2023-03-21T15:17:07.072Z,53.43
2023-03-21T15:19:39.562Z,54.46
2023-03-21T15:22:18.216Z,55.48
2023-03-21T15:24:48.208Z,56.51
2023-03-21T15:27:17.010Z,57.15
2023-03-21T15:29:44.258Z,57.30
2023-03-21T15:32:16.784Z,58.70
2023-03-21T15:34:44.768Z,59.82
2023-03-21T15:37:33.423Z,60.52
2023-03-21T15:40:23.410Z,61.69
2023-03-21T15:42:50.797Z,63.21
2023-03-21T15:45:26.503Z,63.44
2023-03-21T15:48:07.316Z,63.83
2023-03-21T15:50:56.468Z,65.45
2023-03-21T15:53:23.573Z,66.96
2023-03-21T15:56:03.854Z,67.89
2023-03-21T15:58:42.297Z,68.01
2023-03-21T16:01:19.370Z,68.26
2023-03-21T16:04:02.431Z,68.73
2023-03-21T16:06:33.017Z,68.43
2023-03-21T16:09:09.730Z,68.46
2023-03-21T16:11:49.087Z,68.99
2023-03-21T16:14:17.054Z,69.47
2023-03-21T16:16:44.251Z,69.11
2023-03-21T16:19:12.360Z,69.01
2023-03-21T16:21:41.360Z,69.09
2023-03-21T16:24:11.093Z,68.62
2023-03-21T16:26:45.586Z,68.86
2023-03-21T16:29:13.426Z,69.15
2023-03-21T16:31:40.267Z,68.46
2023-03-21T16:34:07.443Z,67.34
2023-03-21T16:36:39.678Z,68.19
2023-03-21T16:39:16.330Z,68.19
2023-03-21T16:41:42.989Z,66.32
2023-03-21T16:44:09.712Z,64.81
2023-03-21T16:46:36.486Z,63.42
2023-03-21T16:49:03.508Z,62.56
2023-03-21T16:51:34.845Z,61.41
2023-03-21T16:54:01.914Z,60.93
2023-03-21T16:56:39.960Z,61.24
2023-03-21T16:59:07.750Z,61.76
2023-03-21T17:01:37.684Z,62.19
2023-03-21T17:04:04.400Z,62.80
2023-03-21T17:06:32.683Z,63.22
2023-03-21T17:08:59.939Z,63.08
2023-03-21T17:11:30.893Z,62.31
2023-03-21T17:13:57.530Z,61.78
2023-03-21T17:16:26.672Z,61.07
2023-03-21T17:18:54.504Z,61.45
2023-03-21T17:21:22.781Z,63.64
2023-03-21T17:23:49.679Z,65.74
2023-03-21T17:26:22.182Z,66.02
2023-03-21T17:28:48.955Z,65.07
2023-03-21T17:31:17.384Z,64.66
2023-03-21T17:33:44.257Z,64.39
2023-03-21T17:36:13.183Z,63.96
2023-03-21T17:38:40.022Z,64.76
2023-03-21T17:41:10.967Z,65.51
2023-03-21T17:43:37.559Z,65.69
2023-03-21T17:46:04.709Z,65.71
2023-03-21T17:48:31.571Z,66.20
2023-03-21T17:50:58.111Z,66.31
2023-03-21T17:53:26.051Z,66.28
2023-03-21T17:55:55.167Z,67.09
2023-03-21T17:58:22.706Z,67.43
2023-03-21T18:00:49.203Z,67.07
2023-03-21T18:03:17.826Z,67.28
2023-03-21T18:05:45.711Z,67.85
2023-03-21T18:08:13.545Z,67.53
2023-03-21T18:10:40.942Z,67.74
2023-03-21T18:13:07.861Z,68.23
2023-03-21T18:15:44.093Z,67.89
2023-03-21T18:18:13.435Z,67.21
2023-03-21T18:20:51.816Z,67.62
2023-03-21T18:23:19.191Z,67.86
2023-03-21T18:25:45.830Z,67.60
2023-03-21T18:28:21.100Z,67.80
2023-03-21T18:31:11.451Z,68.02
2023-03-21T18:33:37.355Z,67.49
2023-03-21T18:36:07.627Z,67.78
2023-03-21T18:38:36.471Z,68.00
2023-03-21T18:41:07.174Z,67.82
2023-03-21T18:46:23.074Z,68.25
2023-03-21T18:48:51.628Z,68.05
2023-03-21T18:51:18.966Z,67.90
2023-03-21T18:53:45.896Z,68.01
2023-03-21T18:56:46.868Z,68.47
2023-03-21T18:59:04.472Z,68.08
2023-03-21T19:01:32.055Z,68.06
2023-03-21T19:04:20.698Z,68.20
2023-03-21T19:06:46.237Z,68.69
2023-03-21T19:09:14.345Z,68.34
2023-03-21T19:11:42.016Z,68.24
2023-03-21T19:14:12.828Z,68.60
2023-03-21T19:17:14.838Z,68.47
2023-03-21T19:19:27.799Z,68.17
2023-03-21T19:21:55.001Z,68.07
2023-03-21T19:24:27.534Z,67.96
2023-03-21T19:26:59.163Z,68.39
2023-03-21T19:29:26.162Z,68.12
2023-03-21T19:31:52.757Z,68.01
2023-03-21T19:34:20.626Z,67.98
2023-03-21T19:36:51.654Z,68.27
2023-03-21T19:39:21.610Z,67.93
2023-03-21T19:41:48.560Z,67.64
2023-03-21T19:44:15.553Z,67.52
2023-03-21T19:46:42.459Z,67.62
2023-03-21T19:49:10.405Z,68.28
2023-03-21T19:51:37.691Z,68.36
2023-03-21T19:54:04.903Z,68.48
2023-03-21T19:56:31.997Z,68.56
2023-03-21T19:58:59.246Z,69.14
2023-03-21T20:01:27.240Z,68.54
2023-03-21T20:03:55.726Z,67.57
2023-03-21T20:06:23.378Z,67.70
2023-03-21T20:09:30.830Z,68.13
2023-03-21T20:23:25.695Z,64.50
2023-03-21T20:25:53.730Z,62.93
2023-03-21T20:28:27.066Z,62.64
2023-03-21T20:31:02.068Z,63.11
2023-03-21T20:33:30.723Z,63.80
2023-03-21T20:38:52.222Z,64.06
2023-03-21T20:41:20.901Z,65.04
2023-03-21T20:46:38.086Z,64.73
2023-03-21T20:49:09.905Z,65.35
2023-03-21T20:52:40.846Z,65.64
2023-03-21T20:54:26.776Z,65.13
2023-03-21T20:56:56.822Z,65.21
2023-03-21T20:59:27.660Z,65.74
2023-03-21T21:01:59.058Z,65.45
2023-03-21T21:04:52.854Z,65.09
2023-03-21T21:07:21.229Z,65.31
2023-03-21T21:09:54.643Z,64.98
2023-03-21T21:12:27.533Z,64.81
2023-03-21T21:14:56.706Z,65.01
2023-03-21T21:17:54.542Z,65.63
2023-03-21T21:20:20.883Z,65.52
2023-03-21T21:22:59.597Z,65.52
2023-03-21T21:25:32.063Z,66.13
2023-03-21T21:28:01.838Z,66.51
2023-03-21T21:30:38.372Z,66.17
2023-03-21T21:33:07.091Z,66.70
2023-03-21T21:35:35.980Z,66.87
2023-03-21T21:38:04.548Z,66.58
2023-03-21T21:40:33.014Z,67.15
2023-03-21T21:43:03.748Z,67.56
2023-03-21T21:45:32.488Z,67.35
2023-03-21T21:48:00.823Z,67.85
2023-03-21T21:50:30.656Z,68.21
2023-03-21T21:53:03.914Z,67.87
2023-03-21T21:55:34.287Z,68.01
2023-03-21T21:58:03.975Z,68.65
2023-03-21T22:00:32.288Z,68.34
2023-03-21T22:03:00.720Z,68.37
2023-03-21T22:05:29.345Z,69.02
2023-03-21T22:08:03.534Z,69.30
2023-03-21T22:10:33.000Z,69.07
2023-03-21T22:13:00.907Z,69.41
2023-03-21T22:15:29.188Z,69.80
2023-03-21T22:17:58.978Z,69.60
2023-03-21T22:20:26.892Z,69.54
2023-03-21T22:23:01.058Z,69.90
2023-03-21T22:25:33.123Z,70.84
2023-03-21T22:28:01.135Z,70.92
2023-03-21T22:30:29.410Z,71.01
2023-03-21T22:33:08.922Z,71.60
2023-03-21T22:35:42.544Z,71.86
2023-03-21T22:38:12.919Z,71.72
2023-03-21T22:40:41.326Z,71.56
2023-03-21T22:43:13.590Z,71.58
2023-03-21T22:45:41.702Z,72.00
2023-03-21T22:48:13.573Z,72.30
2023-03-21T22:50:42.313Z,72.14
2023-03-21T22:53:10.529Z,72.26
2023-03-21T22:55:38.934Z,72.63
2023-03-21T22:58:07.515Z,72.50
2023-03-21T23:00:35.502Z,72.40
2023-03-21T23:03:04.771Z,72.35
2023-03-21T23:05:33.851Z,72.83
2023-03-21T23:08:07.994Z,73.21
2023-03-21T23:10:40.921Z,72.91
2023-03-21T23:13:09.332Z,72.84
2023-03-21T23:15:40.832Z,72.96
2023-03-21T23:18:09.872Z,73.51
2023-03-21T23:20:38.300Z,72.88
2023-03-21T23:23:06.467Z,72.58
2023-03-21T23:25:39.542Z,72.27
2023-03-21T23:28:08.931Z,72.16
2023-03-21T23:30:38.282Z,72.06
2023-03-21T23:33:06.623Z,72.16
2023-03-21T23:35:39.510Z,72.09
2023-03-21T23:38:08.057Z,72.35
2023-03-21T23:40:38.987Z,72.29
2023-03-21T23:43:07.250Z,72.86
2023-03-21T23:45:35.408Z,72.74
2023-03-21T23:48:05.142Z,72.55
2023-03-21T23:50:34.130Z,72.48
2023-03-21T23:53:05.621Z,72.95
2023-03-21T23:55:37.964Z,72.65
2023-03-21T23:58:09.294Z,72.55
